Time;durP1;ratioP1;P1;durP2;ratioP2;P2;SDS_P1;SDS_P2;PMS_P1;PMS_P2;Temp;Humidity;BMP_temperature;BMP_pressure;BME280_temperature;BME280_humidity;BME280_pressure;Samples;Min_cycle;Max_cycle;Signal;HPM_P1;HPM_P2
2021/01/14 00:00:37;;;;;;;13.68;2.65;;;4.90;90.50;;;;;;4896750;29;20047;-80
2021/01/14 00:03:06;;;;;;;10.68;2.42;;;5.00;90.50;;;;;;4897009;29;20024;-79
2021/01/14 00:05:32;;;;;;;7.07;2.58;;;5.00;90.60;;;;;;4897399;29;20056;-77
2021/01/14 00:07:58;;;;;;;12.27;2.40;;;5.00;90.60;;;;;;4879964;29;20091;-78
2021/01/14 00:10:23;;;;;;;6.82;2.00;;;4.90;90.40;;;;;;4896844;29;20025;-78
2021/01/14 00:12:49;;;;;;;10.25;2.78;;;4.90;90.20;;;;;;4880440;29;20123;-79
2021/01/14 00:15:16;;;;;;;9.38;2.45;;;4.80;90.10;;;;;;4895955;29;20438;-76
2021/01/14 00:17:42;;;;;;;13.73;2.45;;;4.80;90.00;;;;;;4897087;29;20021;-79
2021/01/14 00:20:10;;;;;;;9.18;2.65;;;4.80;90.10;;;;;;4879574;29;20083;-79
2021/01/14 00:22:36;;;;;;;9.20;2.10;;;4.70;90.10;;;;;;4896563;29;20017;-76
2021/01/14 00:25:03;;;;;;;11.48;2.33;;;4.80;90.10;;;;;;4895448;29;20033;-78
2021/01/14 00:27:28;;;;;;;18.13;2.40;;;4.70;90.00;;;;;;4897085;29;20028;-76
2021/01/14 00:29:54;;;;;;;12.48;2.55;;;4.70;90.00;;;;;;4896189;29;20017;-77
2021/01/14 00:32:19;;;;;;;12.55;2.83;;;4.70;90.00;;;;;;4896607;29;20044;-79
2021/01/14 00:34:45;;;;;;;9.93;2.20;;;4.70;89.80;;;;;;4896682;29;20072;-76
2021/01/14 00:39:56;;;;;;;10.38;2.30;;;4.70;90.20;;;;;;4896882;29;20055;-76
2021/01/14 00:42:21;;;;;;;9.00;1.85;;;4.70;90.20;;;;;;4896629;29;20052;-78
2021/01/14 00:44:47;;;;;;;9.75;2.53;;;4.70;90.10;;;;;;4879350;29;20060;-79
2021/01/14 00:47:13;;;;;;;12.25;2.17;;;4.70;89.80;;;;;;4896449;29;20052;-78
2021/01/14 00:49:38;;;;;;;10.18;2.97;;;4.70;89.70;;;;;;4880213;29;20052;-74
2021/01/14 00:52:04;;;;;;;12.75;3.25;;;4.60;89.60;;;;;;4895675;29;20091;-72
2021/01/14 00:54:30;;;;;;;10.43;1.90;;;4.60;89.10;;;;;;4896778;29;20350;-78
2021/01/14 00:56:55;;;;;;;6.03;1.92;;;4.60;88.60;;;;;;4897332;29;20056;-78
2021/01/14 00:59:21;;;;;;;10.80;2.17;;;4.60;88.50;;;;;;4900003;29;20040;-78
2021/01/14 01:01:46;;;;;;;7.38;2.08;;;4.60;88.60;;;;;;4900273;29;20176;-74
2021/01/14 01:04:12;;;;;;;10.35;2.33;;;4.50;87.90;;;;;;4899112;29;20039;-79
2021/01/14 01:06:40;;;;;;;12.15;3.10;;;4.50;88.10;;;;;;4900589;29;20027;-76
2021/01/14 01:09:10;;;;;;;7.60;2.83;;;4.50;88.30;;;;;;4899705;29;20036;-72
2021/01/14 01:11:37;;;;;;;4.43;1.75;;;4.50;88.60;;;;;;4899487;29;20473;-78
2021/01/14 01:14:03;;;;;;;7.68;1.90;;;4.50;88.60;;;;;;4883007;29;20029;-74
2021/01/14 01:16:29;;;;;;;8.10;1.75;;;4.40;88.60;;;;;;4900019;29;20113;-78
2021/01/14 01:18:54;;;;;;;5.93;1.55;;;4.30;88.30;;;;;;4899179;29;20552;-78
2021/01/14 01:21:20;;;;;;;8.00;2.25;;;4.30;88.50;;;;;;4898368;29;20032;-75
2021/01/14 01:23:46;;;;;;;6.80;2.70;;;4.20;88.40;;;;;;4900000;29;20084;-79
2021/01/14 01:26:19;;;;;;;11.18;1.85;;;4.20;88.30;;;;;;4898798;29;20027;-77
2021/01/14 01:28:45;;;;;;;6.13;1.80;;;4.10;88.00;;;;;;4899689;29;20029;-76
2021/01/14 01:31:12;;;;;;;10.68;2.00;;;4.10;87.70;;;;;;4899417;29;20053;-79
2021/01/14 01:33:40;;;;;;;7.65;1.92;;;4.00;87.20;;;;;;4899116;29;20111;-79
2021/01/14 01:36:10;;;;;;;10.38;2.40;;;4.00;87.30;;;;;;4899405;29;20052;-81
2021/01/14 01:38:36;;;;;;;10.93;2.20;;;3.90;87.60;;;;;;4899727;29;20557;-81
2021/01/14 01:41:03;;;;;;;7.72;2.28;;;3.90;87.70;;;;;;4899023;29;20104;-78
2021/01/14 01:43:29;;;;;;;11.38;2.30;;;3.90;88.00;;;;;;4899315;29;20056;-80
2021/01/14 01:45:55;;;;;;;12.07;2.00;;;3.80;88.20;;;;;;4899452;29;20071;-77
2021/01/14 01:48:22;;;;;;;7.28;2.00;;;3.80;88.00;;;;;;4898589;29;20589;-74
2021/01/14 01:50:50;;;;;;;9.40;2.00;;;3.80;88.10;;;;;;4882559;29;20465;-76
2021/01/14 01:53:16;;;;;;;8.65;2.15;;;3.80;88.20;;;;;;4898555;29;20016;-75
2021/01/14 01:55:44;;;;;;;7.43;2.13;;;3.90;88.20;;;;;;4882535;29;20036;-73
2021/01/14 01:58:11;;;;;;;10.20;2.13;;;3.90;88.20;;;;;;4898725;29;20031;-77
2021/01/14 02:00:36;;;;;;;6.47;1.55;;;3.90;87.80;;;;;;4899011;29;20029;-74
2021/01/14 02:03:02;;;;;;;9.25;2.30;;;3.90;87.50;;;;;;4899198;29;20024;-78
2021/01/14 02:05:27;;;;;;;6.72;1.48;;;4.00;87.40;;;;;;4897700;29;20052;-77
2021/01/14 02:08:22;;;;;;;7.20;1.88;;;3.90;87.00;;;;;;4880286;29;20025;-72
2021/01/14 02:11:00;;;;;;;9.43;2.50;;;4.00;87.00;;;;;;4882095;29;20016;-76
2021/01/14 02:13:28;;;;;;;7.28;1.90;;;3.90;87.00;;;;;;4898761;29;20115;-79
2021/01/14 02:15:57;;;;;;;10.05;1.92;;;3.90;86.80;;;;;;4898212;29;20029;-76
2021/01/14 02:18:23;;;;;;;4.65;1.60;;;3.90;87.60;;;;;;4898535;29;20506;-78
2021/01/14 02:20:50;;;;;;;4.55;1.60;;;3.90;87.00;;;;;;4898806;29;20025;-79
2021/01/14 02:23:42;;;;;;;6.80;1.77;;;3.90;86.80;;;;;;4898029;29;20115;-76
2021/01/14 02:26:20;;;;;;;5.72;1.80;;;3.90;86.70;;;;;;4855281;29;20116;-74
2021/01/14 02:28:46;;;;;;;6.70;1.88;;;3.90;86.20;;;;;;4881365;29;20096;-78
2021/01/14 02:31:12;;;;;;;7.50;1.73;;;3.90;86.00;;;;;;4898151;29;20478;-78
2021/01/14 02:33:38;;;;;;;7.85;1.80;;;3.90;86.00;;;;;;4898602;29;20060;-80
2021/01/14 02:36:04;;;;;;;10.23;1.75;;;3.90;86.10;;;;;;4897297;29;20459;-78
2021/01/14 02:38:31;;;;;;;6.07;1.38;;;3.90;86.20;;;;;;4898872;29;20048;-78
2021/01/14 02:40:57;;;;;;;11.68;2.15;;;3.90;86.10;;;;;;4898516;29;20034;-80
2021/01/14 02:43:23;;;;;;;6.00;1.75;;;3.90;86.50;;;;;;4897464;29;20083;-77
2021/01/14 02:45:48;;;;;;;3.90;1.65;;;3.90;86.40;;;;;;4898453;29;20028;-75
2021/01/14 02:48:19;;;;;;;8.68;1.95;;;3.90;86.30;;;;;;4897923;29;20077;-81
2021/01/14 02:50:48;;;;;;;10.23;2.78;;;3.90;86.50;;;;;;4897578;29;20102;-72
2021/01/14 02:53:15;;;;;;;6.20;1.80;;;3.90;86.30;;;;;;4897662;29;20353;-75
2021/01/14 02:55:42;;;;;;;7.68;1.90;;;3.90;86.10;;;;;;4898286;29;20028;-76
2021/01/14 02:58:08;;;;;;;9.02;1.70;;;4.00;86.50;;;;;;4896888;29;20064;-76
2021/01/14 03:00:34;;;;;;;7.50;1.63;;;3.90;86.30;;;;;;4898085;29;20561;-77
2021/01/14 03:02:59;;;;;;;4.25;1.60;;;3.90;86.40;;;;;;4897744;29;20116;-75
2021/01/14 03:05:25;;;;;;;8.93;2.67;;;3.90;86.30;;;;;;4897079;29;20061;-74
2021/01/14 03:07:50;;;;;;;12.15;2.33;;;3.90;86.20;;;;;;4897922;29;20059;-76
2021/01/14 03:10:16;;;;;;;8.23;2.22;;;3.80;86.50;;;;;;4897541;29;20043;-75
2021/01/14 03:12:41;;;;;;;4.60;1.92;;;3.80;86.60;;;;;;4880574;29;20033;-74
2021/01/14 03:15:07;;;;;;;5.32;1.95;;;3.80;86.80;;;;;;4897294;29;20021;-74
2021/01/14 03:17:37;;;;;;;4.55;1.50;;;3.80;86.90;;;;;;4897094;29;20418;-74
2021/01/14 03:20:06;;;;;;;6.00;1.70;;;3.70;87.00;;;;;;4896995;29;20114;-75
2021/01/14 03:22:37;;;;;;;8.27;2.38;;;3.70;87.20;;;;;;4897754;29;20025;-78
2021/01/14 03:25:05;;;;;;;8.83;1.73;;;3.70;86.70;;;;;;4896779;29;20063;-69
2021/01/14 03:27:35;;;;;;;11.43;1.67;;;3.60;86.90;;;;;;4897710;29;20024;-77
2021/01/14 03:30:01;;;;;;;3.33;1.20;;;3.60;86.70;;;;;;4897643;29;20028;-79
2021/01/14 03:32:26;;;;;;;7.25;1.83;;;3.60;87.00;;;;;;4896796;29;20032;-79
2021/01/14 03:34:52;;;;;;;6.57;1.73;;;3.50;87.20;;;;;;4897317;29;20044;-78
2021/01/14 03:37:17;;;;;;;11.55;2.00;;;3.40;87.20;;;;;;4880506;29;20048;-76
2021/01/14 03:39:43;;;;;;;7.55;2.20;;;3.40;87.40;;;;;;4880263;29;20194;-77
2021/01/14 03:42:08;;;;;;;6.90;1.70;;;3.40;87.20;;;;;;4896996;29;20029;-77
2021/01/14 03:44:34;;;;;;;8.60;2.00;;;3.30;87.10;;;;;;4897356;29;20027;-79
2021/01/14 03:46:59;;;;;;;9.98;1.77;;;3.30;87.40;;;;;;4896695;29;20035;-78
2021/01/14 03:49:25;;;;;;;6.28;1.52;;;3.30;87.90;;;;;;4897030;29;20036;-76
2021/01/14 03:51:50;;;;;;;5.30;1.90;;;3.30;88.30;;;;;;4897181;29;20528;-73
2021/01/14 03:54:21;;;;;;;7.38;1.70;;;3.30;88.00;;;;;;4896289;29;20060;-77
2021/01/14 03:56:47;;;;;;;4.65;1.40;;;3.30;88.30;;;;;;4897256;29;20385;-78
2021/01/14 03:59:12;;;;;;;4.80;1.67;;;3.30;88.80;;;;;;4896749;29;20036;-77
2021/01/14 04:01:38;;;;;;;10.02;1.52;;;3.30;89.00;;;;;;4896680;29;20028;-76
2021/01/14 04:04:04;;;;;;;6.93;2.22;;;3.30;88.90;;;;;;4896587;29;20575;-72
2021/01/14 04:06:34;;;;;;;6.40;2.00;;;3.30;88.90;;;;;;4897323;29;20521;-75
2021/01/14 04:09:00;;;;;;;7.25;1.60;;;3.30;89.20;;;;;;4896400;29;20032;-77
2021/01/14 04:11:26;;;;;;;8.45;1.65;;;3.30;89.30;;;;;;4896809;29;20103;-76
2021/01/14 04:13:52;;;;;;;6.43;1.33;;;3.40;89.60;;;;;;4896388;29;20065;-74
2021/01/14 04:16:17;;;;;;;8.32;1.95;;;3.40;89.70;;;;;;4896735;29;20029;-79
2021/01/14 04:18:43;;;;;;;5.30;1.58;;;3.40;89.00;;;;;;4897055;29;20044;-74
2021/01/14 04:21:09;;;;;;;5.47;1.70;;;3.40;89.20;;;;;;4895753;29;20036;-74
2021/01/14 04:23:34;;;;;;;9.30;1.70;;;3.40;89.00;;;;;;4880254;29;20119;-79
2021/01/14 04:26:00;;;;;;;5.50;1.95;;;3.40;89.20;;;;;;4896989;29;20541;-79
2021/01/14 04:28:25;;;;;;;7.32;1.65;;;3.40;89.30;;;;;;4895981;29;20095;-76
2021/01/14 04:30:51;;;;;;;8.00;1.85;;;3.40;89.00;;;;;;4898147;29;20043;-76
2021/01/14 04:33:16;;;;;;;8.35;1.75;;;3.30;89.10;;;;;;4900204;29;20037;-75
2021/01/14 04:35:53;;;;;;;9.43;1.80;;;3.30;89.10;;;;;;4900096;29;20056;-79
2021/01/14 04:38:21;;;;;;;7.40;1.75;;;3.20;89.30;;;;;;4900282;29;20036;-79
2021/01/14 04:40:58;;;;;;;6.50;1.52;;;3.20;89.10;;;;;;4900888;29;20405;-78
2021/01/14 04:43:25;;;;;;;5.65;1.70;;;3.20;89.30;;;;;;4899596;29;20464;-76
2021/01/14 04:45:54;;;;;;;12.65;1.98;;;3.10;89.60;;;;;;4900519;29;20367;-76
2021/01/14 04:48:21;;;;;;;9.57;1.85;;;3.10;89.90;;;;;;4900198;29;20509;-73
2021/01/14 04:50:48;;;;;;;9.68;1.90;;;3.00;90.00;;;;;;4899875;29;20032;-77
2021/01/14 04:53:17;;;;;;;8.80;1.85;;;3.00;90.20;;;;;;4899873;29;20028;-73
2021/01/14 04:55:48;;;;;;;6.20;1.85;;;3.00;90.10;;;;;;4900702;29;20032;-74
2021/01/14 04:58:19;;;;;;;4.15;1.45;;;3.00;89.70;;;;;;4899371;29;20025;-75
2021/01/14 05:00:51;;;;;;;7.00;1.40;;;3.00;89.80;;;;;;4900247;29;20362;-74
2021/01/14 05:03:22;;;;;;;7.68;1.60;;;3.10;89.70;;;;;;4899383;29;20437;-78
2021/01/14 05:05:49;;;;;;;7.75;2.08;;;3.10;89.80;;;;;;4900277;29;20094;-76
2021/01/14 05:08:15;;;;;;;4.07;1.30;;;3.10;89.90;;;;;;4899843;29;20021;-78
2021/01/14 05:10:44;;;;;;;9.98;1.75;;;3.10;89.40;;;;;;4899584;29;20071;-79
2021/01/14 05:13:10;;;;;;;5.45;1.45;;;3.10;89.50;;;;;;4899712;29;20426;-76
2021/01/14 05:15:38;;;;;;;5.00;1.48;;;3.20;89.70;;;;;;4900091;29;20020;-73
2021/01/14 05:18:03;;;;;;;5.60;1.60;;;3.20;89.80;;;;;;4899159;29;20028;-71
2021/01/14 05:20:29;;;;;;;6.70;1.63;;;3.30;89.90;;;;;;4899841;29;20037;-77
2021/01/14 05:23:00;;;;;;;4.03;1.25;;;3.30;89.80;;;;;;4898463;29;20047;-76
2021/01/14 05:25:26;;;;;;;6.25;1.50;;;3.30;89.80;;;;;;4882081;29;20043;-78
2021/01/14 05:27:51;;;;;;;5.40;1.50;;;3.30;89.80;;;;;;4899774;29;20025;-78
2021/01/14 05:30:18;;;;;;;6.57;1.58;;;3.30;89.40;;;;;;4899438;29;20419;-77
2021/01/14 05:32:45;;;;;;;6.10;1.45;;;3.30;89.30;;;;;;4899353;29;20116;-77
2021/01/14 05:35:16;;;;;;;11.23;1.92;;;3.30;88.80;;;;;;4899076;29;20061;-78
2021/01/14 05:37:43;;;;;;;7.22;1.80;;;3.30;89.10;;;;;;4899866;29;20033;-74
2021/01/14 05:40:21;;;;;;;8.07;1.60;;;3.30;89.30;;;;;;4898446;29;20059;-79
2021/01/14 05:43:08;;;;;;;7.53;1.75;;;3.30;89.20;;;;;;4899398;29;20080;-75
2021/01/14 05:45:35;;;;;;;10.27;2.40;;;3.30;88.90;;;;;;4899195;29;20032;-74
2021/01/14 05:48:11;;;;;;;6.15;1.80;;;3.30;89.10;;;;;;4899434;29;20025;-75
2021/01/14 05:50:43;;;;;;;8.38;2.30;;;3.30;88.90;;;;;;4882048;29;20076;-75
2021/01/14 05:53:18;;;;;;;3.53;1.50;;;3.20;88.60;;;;;;4898057;29;20033;-78
2021/01/14 05:55:50;;;;;;;7.00;1.60;;;3.20;89.20;;;;;;4899631;29;20056;-77
2021/01/14 05:58:20;;;;;;;7.90;1.40;;;3.20;89.50;;;;;;4899296;29;20036;-83
2021/01/14 06:00:47;;;;;;;10.60;2.08;;;3.30;89.80;;;;;;4899360;29;20032;-79
2021/01/14 06:03:23;;;;;;;7.00;2.15;;;3.30;89.50;;;;;;4899088;29;20028;-72
2021/01/14 06:05:49;;;;;;;3.30;1.27;;;3.30;89.00;;;;;;4899409;29;20024;-76
2021/01/14 06:08:28;;;;;;;6.90;1.25;;;3.30;88.80;;;;;;4891975;29;20850;-75
2021/01/14 06:10:54;;;;;;;7.28;1.65;;;3.30;88.80;;;;;;4880229;29;20081;-74
2021/01/14 06:13:39;;;;;;;12.18;1.85;;;3.30;88.70;;;;;;4862546;29;20025;-73
2021/01/14 06:16:05;;;;;;;6.18;1.70;;;3.30;88.60;;;;;;4879797;29;20029;-72
2021/01/14 06:18:31;;;;;;;5.53;1.58;;;3.30;88.50;;;;;;4880171;29;20033;-73
2021/01/14 06:20:56;;;;;;;9.75;1.90;;;3.30;88.20;;;;;;4879469;29;20378;-74
2021/01/14 06:23:23;;;;;;;7.75;1.55;;;3.40;87.90;;;;;;4879806;29;20055;-74
2021/01/14 06:25:53;;;;;;;9.50;2.75;;;3.30;88.30;;;;;;4880081;29;20025;-76
2021/01/14 06:28:33;;;;;;;6.32;1.50;;;3.40;88.20;;;;;;4879120;29;20029;-74
2021/01/14 06:31:07;;;;;;;8.48;2.08;;;3.40;88.30;;;;;;4863107;29;20025;-74
2021/01/14 06:33:33;;;;;;;8.98;1.73;;;3.40;88.40;;;;;;4881983;29;20021;-70
2021/01/14 06:36:09;;;;;;;8.68;1.52;;;3.40;88.60;;;;;;4885985;29;20045;-76
2021/01/14 06:38:45;;;;;;;8.60;1.88;;;3.40;88.20;;;;;;4891701;29;20033;-72
2021/01/14 06:41:19;;;;;;;9.18;1.80;;;3.40;88.00;;;;;;4892740;29;20100;-74
2021/01/14 06:43:47;;;;;;;8.85;1.83;;;3.40;88.10;;;;;;4891427;29;20104;-76
2021/01/14 06:46:21;;;;;;;6.68;1.70;;;3.40;88.20;;;;;;4914228;29;20028;-73
2021/01/14 06:49:03;;;;;;;9.82;1.88;;;3.50;88.20;;;;;;4905412;29;20131;-78
2021/01/14 06:51:43;;;;;;;7.80;1.73;;;3.40;87.70;;;;;;4898238;29;20037;-74
2021/01/14 06:54:12;;;;;;;8.18;1.70;;;3.50;87.80;;;;;;4896871;29;20104;-73
2021/01/14 06:57:11;;;;;;;8.45;1.92;;;3.50;87.90;;;;;;4897582;29;20060;-77
2021/01/14 06:59:38;;;;;;;6.40;1.52;;;3.50;87.70;;;;;;4891109;29;20053;-74
2021/01/14 07:02:07;;;;;;;4.95;1.30;;;3.50;87.40;;;;;;4886864;29;20200;-76
2021/01/14 07:04:53;;;;;;;8.02;1.58;;;3.50;87.20;;;;;;4883984;29;20534;-75
2021/01/14 07:07:37;;;;;;;6.10;1.90;;;3.40;87.30;;;;;;4882625;29;20411;-74
2021/01/14 07:10:06;;;;;;;5.50;1.80;;;3.40;87.00;;;;;;4897042;29;20035;-69
2021/01/14 07:12:36;;;;;;;12.35;1.88;;;3.40;87.50;;;;;;4881182;29;20032;-70
2021/01/14 07:15:03;;;;;;;10.70;1.70;;;3.40;87.70;;;;;;4889918;29;20021;-74
2021/01/14 07:17:33;;;;;;;11.15;2.40;;;3.40;87.10;;;;;;4886496;29;20029;-77
2021/01/14 07:19:59;;;;;;;12.20;2.30;;;3.50;87.60;;;;;;4891215;29;20057;-74
2021/01/14 07:22:25;;;;;;;8.25;2.40;;;3.50;87.70;;;;;;4892556;29;20036;-74
2021/01/14 07:24:54;;;;;;;8.98;1.70;;;3.50;87.70;;;;;;4878252;29;20029;-77
2021/01/14 07:27:19;;;;;;;7.07;1.98;;;3.50;88.50;;;;;;4878604;29;20013;-73
2021/01/14 07:29:45;;;;;;;9.18;2.00;;;3.50;88.00;;;;;;4871695;29;20359;-75
2021/01/14 07:32:11;;;;;;;6.50;2.05;;;3.50;87.90;;;;;;4879567;29;20366;-73
2021/01/14 07:34:44;;;;;;;7.40;1.70;;;3.50;88.00;;;;;;4896680;29;20048;-73
2021/01/14 07:37:20;;;;;;;8.10;1.85;;;3.60;88.10;;;;;;4897128;29;20036;-70
2021/01/14 07:39:49;;;;;;;8.85;2.00;;;3.50;88.30;;;;;;4897474;29;20367;-73
2021/01/14 07:42:30;;;;;;;6.90;1.90;;;3.50;88.20;;;;;;4880903;29;20028;-77
2021/01/14 07:45:13;;;;;;;9.55;2.40;;;3.60;88.50;;;;;;4879854;29;20552;-72
2021/01/14 07:47:39;;;;;;;8.75;2.28;;;3.60;88.50;;;;;;4879674;29;20025;-73
2021/01/14 07:50:25;;;;;;;14.23;3.75;;;3.50;88.60;;;;;;4896053;29;20486;-76
2021/01/14 07:52:55;;;;;;;15.70;3.38;;;3.60;88.90;;;;;;4895849;29;20037;-73
2021/01/14 07:55:27;;;;;;;11.18;2.47;;;3.60;88.80;;;;;;4895846;29;20036;-76
2021/01/14 07:57:59;;;;;;;11.00;2.75;;;3.60;88.90;;;;;;4895907;29;20017;-77
2021/01/14 08:00:24;;;;;;;11.38;3.03;;;3.70;89.00;;;;;;4878630;29;20494;-76
2021/01/14 08:03:19;;;;;;;11.93;2.72;;;3.70;89.00;;;;;;4879644;29;20035;-80
2021/01/14 08:05:56;;;;;;;8.38;2.95;;;3.70;89.10;;;;;;4876162;29;20051;-76
2021/01/14 08:08:30;;;;;;;8.50;2.20;;;3.80;89.10;;;;;;4895641;29;20029;-76
2021/01/14 08:11:15;;;;;;;9.70;2.60;;;3.70;89.10;;;;;;4894395;29;20045;-73
2021/01/14 08:14:02;;;;;;;24.23;3.75;;;3.80;89.10;;;;;;4893921;29;20063;-74
2021/01/14 08:16:50;;;;;;;10.75;2.33;;;3.80;88.90;;;;;;4877073;29;20395;-76
2021/01/14 08:19:21;;;;;;;8.43;2.00;;;3.90;88.50;;;;;;4876350;29;20191;-77
2021/01/14 08:22:06;;;;;;;6.90;2.03;;;3.80;88.60;;;;;;4895411;29;20028;-80
2021/01/14 08:24:32;;;;;;;8.52;2.58;;;3.90;88.50;;;;;;4878964;29;20043;-76
2021/01/14 08:27:04;;;;;;;9.90;1.92;;;3.90;88.40;;;;;;4895094;29;20029;-77
2021/01/14 08:29:39;;;;;;;4.97;1.83;;;3.90;88.50;;;;;;4879443;29;20025;-75
2021/01/14 08:32:32;;;;;;;4.32;1.73;;;3.90;88.20;;;;;;4878793;29;20037;-75
2021/01/14 08:35:07;;;;;;;6.90;1.90;;;3.90;87.80;;;;;;4869577;29;20129;-74
2021/01/14 08:37:36;;;;;;;10.05;2.67;;;4.00;87.90;;;;;;4877106;29;20025;-75
2021/01/14 08:40:08;;;;;;;7.95;2.00;;;3.90;87.70;;;;;;4860549;29;20092;-76
2021/01/14 08:42:36;;;;;;;3.40;2.08;;;4.00;87.80;;;;;;4875847;29;20524;-78
2021/01/14 08:45:19;;;;;;;5.05;2.40;;;4.00;87.90;;;;;;4859679;29;20029;-79
2021/01/14 08:47:53;;;;;;;5.28;1.85;;;4.10;87.70;;;;;;4876998;29;20036;-74
2021/01/14 08:50:40;;;;;;;10.95;2.53;;;4.10;87.70;;;;;;4876361;29;20112;-76
2021/01/14 08:53:08;;;;;;;7.28;2.42;;;4.10;87.60;;;;;;4859917;29;20036;-70
2021/01/14 08:55:36;;;;;;;7.90;2.20;;;4.20;87.40;;;;;;4856341;29;20578;-72
2021/01/14 08:58:06;;;;;;;6.22;1.90;;;4.20;87.10;;;;;;4876297;29;20172;-72
2021/01/14 09:00:32;;;;;;;6.18;1.98;;;4.20;87.80;;;;;;4877264;29;20485;-69
2021/01/14 09:02:58;;;;;;;8.15;2.70;;;4.30;87.10;;;;;;4876331;29;20025;-70
2021/01/14 09:05:24;;;;;;;9.55;2.95;;;4.30;87.00;;;;;;4875717;29;20413;-68
2021/01/14 09:08:05;;;;;;;8.60;2.55;;;4.30;86.80;;;;;;4876259;29;20026;-71
2021/01/14 09:10:49;;;;;;;8.32;2.47;;;4.40;86.60;;;;;;4860077;29;20025;-77
2021/01/14 09:13:26;;;;;;;11.82;3.22;;;4.40;86.50;;;;;;4876295;29;20422;-81
2021/01/14 09:15:54;;;;;;;7.10;3.55;;;4.50;86.60;;;;;;4860018;29;20493;-78
2021/01/14 09:18:31;;;;;;;12.63;2.38;;;4.50;86.40;;;;;;4862269;29;20028;-78
2021/01/14 09:20:58;;;;;;;9.43;2.30;;;4.50;86.20;;;;;;4880165;29;20033;-76
2021/01/14 09:23:24;;;;;;;7.75;2.30;;;4.60;85.80;;;;;;4879290;29;20037;-76
2021/01/14 09:25:55;;;;;;;8.00;3.10;;;4.60;85.80;;;;;;4879334;29;20490;-80
2021/01/14 09:28:22;;;;;;;11.13;2.90;;;4.60;85.70;;;;;;4863305;29;20562;-84
2021/01/14 09:30:59;;;;;;;8.13;2.55;;;4.70;85.70;;;;;;4880408;29;20062;-81
2021/01/14 09:33:27;;;;;;;6.95;2.15;;;4.70;85.60;;;;;;4863061;29;20081;-81
2021/01/14 09:36:01;;;;;;;8.18;2.30;;;4.70;85.50;;;;;;4895272;29;20056;-74
2021/01/14 09:38:27;;;;;;;8.85;2.35;;;4.80;85.30;;;;;;4897158;29;20044;-80
2021/01/14 09:40:54;;;;;;;6.05;2.30;;;4.80;85.10;;;;;;4881957;29;20035;-79
2021/01/14 09:43:24;;;;;;;9.88;3.25;;;4.80;85.00;;;;;;4881287;29;20385;-77
2021/01/14 09:45:50;;;;;;;13.35;2.90;;;4.80;85.00;;;;;;4880435;29;20490;-75
2021/01/14 09:48:20;;;;;;;10.18;2.47;;;4.80;84.90;;;;;;4897841;29;20112;-73
2021/01/14 09:50:45;;;;;;;7.32;2.40;;;4.70;84.60;;;;;;4870816;29;20060;-74
2021/01/14 09:53:12;;;;;;;11.32;2.45;;;4.70;84.70;;;;;;4888464;29;20040;-75
2021/01/14 09:55:39;;;;;;;11.85;2.45;;;4.70;84.50;;;;;;4881462;29;20029;-79
2021/01/14 09:58:06;;;;;;;10.18;3.13;;;4.70;84.70;;;;;;4880814;29;20057;-75
2021/01/14 10:00:36;;;;;;;10.13;2.60;;;4.70;84.70;;;;;;4880669;29;20472;-77
2021/01/14 10:03:07;;;;;;;9.23;2.97;;;4.70;84.90;;;;;;4898049;29;20080;-80
2021/01/14 10:05:35;;;;;;;11.13;3.33;;;4.70;84.90;;;;;;4880453;29;20096;-76
2021/01/14 10:08:09;;;;;;;8.05;2.20;;;4.70;84.80;;;;;;4881299;29;20032;-77
2021/01/14 10:10:34;;;;;;;8.75;2.60;;;4.70;84.60;;;;;;4898022;29;20028;-76
2021/01/14 10:13:00;;;;;;;6.97;2.78;;;4.60;84.80;;;;;;4898030;29;20039;-71
2021/01/14 10:15:26;;;;;;;10.00;3.35;;;4.60;84.70;;;;;;4898706;29;20482;-73
2021/01/14 10:17:52;;;;;;;9.15;2.72;;;4.50;84.70;;;;;;4881314;29;20036;-71
2021/01/14 10:20:18;;;;;;;8.93;2.58;;;4.50;85.00;;;;;;4897811;29;20521;-73
2021/01/14 10:22:51;;;;;;;7.90;3.10;;;4.50;85.10;;;;;;4898620;29;20378;-72
2021/01/14 10:25:18;;;;;;;7.63;2.53;;;4.50;85.30;;;;;;4898444;29;20056;-77
2021/01/14 10:28:07;;;;;;;9.52;3.30;;;4.50;85.30;;;;;;4880857;29;20020;-72
2021/01/14 10:30:37;;;;;;;7.80;3.35;;;4.40;85.30;;;;;;4898413;29;20354;-72
2021/01/14 10:33:05;;;;;;;6.32;2.60;;;4.40;85.30;;;;;;4898131;29;20084;-74
2021/01/14 10:35:32;;;;;;;11.98;3.67;;;4.40;85.40;;;;;;4897801;29;20059;-74
2021/01/14 10:38:01;;;;;;;10.75;3.22;;;4.30;85.30;;;;;;4881517;29;20027;-73
2021/01/14 10:40:32;;;;;;;9.02;2.88;;;4.30;85.50;;;;;;4898006;29;20516;-74
2021/01/14 10:43:00;;;;;;;5.88;2.45;;;4.30;85.50;;;;;;4898105;29;20515;-75
2021/01/14 10:45:29;;;;;;;9.98;3.13;;;4.20;85.60;;;;;;4881175;29;20028;-73
2021/01/14 10:48:11;;;;;;;8.82;3.65;;;4.20;85.80;;;;;;4880706;29;20537;-73
2021/01/14 10:50:44;;;;;;;12.15;3.15;;;4.10;85.80;;;;;;4881476;29;20032;-72
2021/01/14 10:53:12;;;;;;;10.27;3.85;;;4.10;85.80;;;;;;4897715;29;20044;-73
2021/01/14 10:55:37;;;;;;;9.27;3.70;;;4.10;86.10;;;;;;4897593;29;20462;-73
2021/01/14 10:58:06;;;;;;;9.88;3.97;;;4.10;86.20;;;;;;4897658;29;20145;-72
2021/01/14 11:00:38;;;;;;;9.35;3.92;;;4.00;86.30;;;;;;4897952;29;20043;-74
2021/01/14 11:03:11;;;;;;;11.68;5.28;;;4.00;86.40;;;;;;4897042;29;20099;-72
2021/01/14 11:06:09;;;;;;;9.43;4.55;;;4.00;86.60;;;;;;4898207;29;20051;-72
2021/01/14 11:08:44;;;;;;;13.27;4.45;;;4.00;86.80;;;;;;4877884;29;20545;-73
2021/01/14 11:11:12;;;;;;;14.88;4.47;;;4.00;87.00;;;;;;4897411;29;20028;-73
2021/01/14 11:13:42;;;;;;;13.73;5.00;;;4.00;87.00;;;;;;4881147;29;20032;-75
2021/01/14 11:16:10;;;;;;;9.95;4.50;;;4.00;87.00;;;;;;4879785;29;20028;-77
2021/01/14 11:18:41;;;;;;;7.07;3.92;;;4.00;87.20;;;;;;4881028;29;20486;-78
2021/01/14 11:21:07;;;;;;;8.98;4.30;;;4.00;87.40;;;;;;4897186;29;20394;-77
2021/01/14 11:23:33;;;;;;;12.70;4.63;;;3.90;87.40;;;;;;4897192;29;20021;-76
2021/01/14 11:26:02;;;;;;;13.00;3.88;;;3.90;87.50;;;;;;4897560;29;20040;-82
2021/01/14 11:28:29;;;;;;;9.98;4.93;;;3.90;87.50;;;;;;4880468;29;20032;-76
2021/01/14 11:30:54;;;;;;;11.70;4.18;;;3.90;87.60;;;;;;4896893;29;20025;-79
2021/01/14 11:33:20;;;;;;;11.07;4.80;;;3.90;87.80;;;;;;4897175;29;20028;-79
2021/01/14 11:35:46;;;;;;;8.20;4.07;;;3.90;88.00;;;;;;4897416;29;20397;-77
2021/01/14 11:38:11;;;;;;;14.07;4.47;;;3.80;87.90;;;;;;4896422;29;20427;-80
2021/01/14 11:40:37;;;;;;;9.57;4.28;;;3.80;88.00;;;;;;4880451;29;20494;-79
2021/01/14 11:43:02;;;;;;;11.55;5.97;;;3.80;88.10;;;;;;4897282;29;20035;-80
2021/01/14 11:45:28;;;;;;;12.50;5.55;;;3.80;88.20;;;;;;4896642;29;20025;-79
2021/01/14 11:47:53;;;;;;;19.40;5.68;;;3.80;88.30;;;;;;4880230;29;20120;-75
2021/01/14 11:50:19;;;;;;;17.50;8.98;;;3.80;88.30;;;;;;4880245;29;20036;-81
2021/01/14 11:52:44;;;;;;;16.30;6.68;;;3.70;88.40;;;;;;4896703;29;20060;-76
2021/01/14 11:55:11;;;;;;;19.23;9.00;;;3.70;88.50;;;;;;4897015;29;20040;-77
2021/01/14 11:57:37;;;;;;;13.23;5.35;;;3.80;88.70;;;;;;4897711;29;20021;-77
2021/01/14 12:00:07;;;;;;;13.57;6.05;;;3.80;88.60;;;;;;4896385;29;20039;-81
2021/01/14 12:02:33;;;;;;;8.88;4.53;;;3.70;88.50;;;;;;4879664;29;20024;-77
2021/01/14 12:04:58;;;;;;;8.18;4.28;;;3.70;88.40;;;;;;4879426;29;20067;-78
2021/01/14 12:07:24;;;;;;;10.35;4.68;;;3.70;88.50;;;;;;4880034;29;20068;-76
2021/01/14 12:09:49;;;;;;;10.57;5.00;;;3.70;88.70;;;;;;4897008;29;20029;-74
2021/01/14 12:12:15;;;;;;;12.82;5.13;;;3.70;88.70;;;;;;4879422;29;20115;-82
2021/01/14 12:14:40;;;;;;;7.97;4.38;;;3.80;88.70;;;;;;4896729;29;20165;-74
2021/01/14 12:17:06;;;;;;;8.60;3.90;;;3.80;88.70;;;;;;4896669;29;20071;-75
2021/01/14 12:19:31;;;;;;;8.30;3.95;;;3.90;88.70;;;;;;4879842;29;20485;-73
2021/01/14 12:22:01;;;;;;;8.27;4.22;;;3.90;88.70;;;;;;4879978;29;20474;-79
2021/01/14 12:24:27;;;;;;;8.93;3.75;;;4.00;88.60;;;;;;4896766;29;20037;-77
2021/01/14 12:26:53;;;;;;;10.10;4.30;;;4.20;88.40;;;;;;4879729;29;20031;-79
2021/01/14 12:29:18;;;;;;;9.57;4.28;;;4.30;87.70;;;;;;4879847;29;20161;-78
2021/01/14 12:31:44;;;;;;;8.70;3.83;;;4.50;87.30;;;;;;4897116;29;20064;-82
2021/01/14 12:34:09;;;;;;;9.35;4.00;;;4.70;86.80;;;;;;4895639;29;20032;-75
2021/01/14 12:36:35;;;;;;;11.55;4.00;;;4.80;86.20;;;;;;4880289;29;20088;-77
2021/01/14 12:39:00;;;;;;;7.00;3.42;;;5.00;84.90;;;;;;4896749;29;20108;-76
2021/01/14 12:41:33;;;;;;;6.85;3.78;;;5.10;84.50;;;;;;4879164;29;20033;-79
2021/01/14 12:43:59;;;;;;;12.85;4.25;;;5.10;83.90;;;;;;4896727;29;20032;-76
2021/01/14 12:46:32;;;;;;;6.90;4.00;;;5.20;83.40;;;;;;4883610;29;20355;-78
2021/01/14 12:48:57;;;;;;;4.80;3.55;;;5.10;83.20;;;;;;4896150;29;20036;-79
2021/01/14 12:51:23;;;;;;;7.88;3.47;;;5.10;83.10;;;;;;4880243;29;20055;-78
2021/01/14 12:53:48;;;;;;;4.78;3.33;;;5.10;82.90;;;;;;4883440;29;20039;-82
2021/01/14 12:56:15;;;;;;;6.55;3.38;;;5.00;83.10;;;;;;4899492;29;20029;-80
2021/01/14 12:58:41;;;;;;;6.20;3.60;;;4.90;82.40;;;;;;4900552;29;20033;-78
2021/01/14 13:01:07;;;;;;;5.53;3.22;;;4.70;82.30;;;;;;4882871;29;20052;-81
2021/01/14 13:03:33;;;;;;;4.63;3.38;;;4.60;82.60;;;;;;4899566;29;20052;-80
2021/01/14 13:05:58;;;;;;;10.25;3.60;;;4.60;83.00;;;;;;4900128;29;20035;-80
2021/01/14 13:08:24;;;;;;;6.22;3.28;;;4.60;83.00;;;;;;4899118;29;20028;-78